createdAt,value
2023-05-07T00:00:27.603Z,14.98
2023-05-07T00:01:27.597Z,14.98
2023-05-07T00:02:27.660Z,14.98
2023-05-07T00:03:27.772Z,14.98
2023-05-07T00:04:27.604Z,14.97
2023-05-07T00:05:27.555Z,14.97
2023-05-07T00:06:27.612Z,14.97
2023-05-07T00:07:27.519Z,14.95
2023-05-07T00:08:27.542Z,14.97
2023-05-07T00:09:27.504Z,14.95
2023-05-07T00:10:27.520Z,14.94
2023-05-07T00:11:27.480Z,14.94
2023-05-07T00:12:27.475Z,14.95
2023-05-07T00:13:27.551Z,14.94
2023-05-07T00:14:27.451Z,14.93
2023-05-07T00:15:27.456Z,14.91
2023-05-07T00:16:27.447Z,14.90
2023-05-07T00:17:27.420Z,14.90
2023-05-07T00:18:27.407Z,14.90
2023-05-07T00:19:27.400Z,14.91
2023-05-07T00:20:27.395Z,14.91
2023-05-07T00:21:27.370Z,14.87
2023-05-07T00:22:27.407Z,14.87
2023-05-07T00:23:27.353Z,14.86
2023-05-07T00:24:27.348Z,14.85
2023-05-07T00:25:27.329Z,14.86
2023-05-07T00:26:27.315Z,14.83
2023-05-07T00:27:27.312Z,14.83
2023-05-07T00:28:27.309Z,14.82
2023-05-07T00:29:27.287Z,14.83
2023-05-07T00:30:27.274Z,14.82
2023-05-07T00:31:27.339Z,14.80
2023-05-07T00:32:27.274Z,14.79
2023-05-07T00:33:27.243Z,14.79
2023-05-07T00:34:27.238Z,14.79
2023-05-07T00:35:27.217Z,14.78
2023-05-07T00:36:27.209Z,14.79
2023-05-07T00:37:27.200Z,14.79
2023-05-07T00:38:27.195Z,14.78
2023-05-07T00:39:27.182Z,14.79
2023-05-07T00:40:27.161Z,14.79
2023-05-07T00:41:27.162Z,14.78
2023-05-07T00:42:27.139Z,14.78
2023-05-07T00:43:27.138Z,14.78
2023-05-07T00:44:27.113Z,14.75
2023-05-07T00:45:27.112Z,14.74
2023-05-07T00:46:27.382Z,14.75
2023-05-07T00:47:27.094Z,14.72
2023-05-07T00:48:27.080Z,14.74
2023-05-07T00:49:27.062Z,14.72
2023-05-07T00:50:27.047Z,14.74
2023-05-07T00:51:27.046Z,14.71
2023-05-07T00:52:27.035Z,14.71
2023-05-07T00:53:27.028Z,14.69
2023-05-07T00:54:27.008Z,14.71
2023-05-07T00:55:27.012Z,14.71
2023-05-07T00:56:26.984Z,14.71
2023-05-07T00:57:26.991Z,14.67
2023-05-07T00:58:26.961Z,14.67
2023-05-07T00:59:26.990Z,14.64
2023-05-07T01:00:26.965Z,14.63
2023-05-07T01:01:26.965Z,14.64
2023-05-07T01:02:26.956Z,14.64
2023-05-07T01:03:26.915Z,14.63
2023-05-07T01:04:26.934Z,14.63
2023-05-07T01:05:26.898Z,14.61
2023-05-07T01:06:26.879Z,14.60
2023-05-07T01:07:26.893Z,14.59
2023-05-07T01:08:26.892Z,14.57
2023-05-07T01:09:26.853Z,14.59
2023-05-07T01:10:26.826Z,14.57
2023-05-07T01:11:26.837Z,14.59
2023-05-07T01:12:26.817Z,14.57
2023-05-07T01:13:26.857Z,14.56
2023-05-07T01:14:26.810Z,14.56
2023-05-07T01:15:26.787Z,14.53
2023-05-07T01:16:26.797Z,14.53
2023-05-07T01:17:26.796Z,14.49
2023-05-07T01:18:26.736Z,14.49
2023-05-07T01:19:26.736Z,14.49
2023-05-07T01:20:26.719Z,14.49
2023-05-07T01:21:26.720Z,14.49
2023-05-07T01:22:26.697Z,14.48
2023-05-07T01:23:26.691Z,14.46
2023-05-07T01:24:26.679Z,14.48
2023-05-07T01:25:26.683Z,14.45
2023-05-07T01:26:26.663Z,14.48
2023-05-07T01:27:26.644Z,14.46
2023-05-07T01:28:26.628Z,14.44
2023-05-07T01:29:26.620Z,14.42
2023-05-07T01:30:26.617Z,14.41
2023-05-07T01:31:26.623Z,14.41
2023-05-07T01:32:26.615Z,14.41
2023-05-07T01:33:26.591Z,14.36
2023-05-07T01:34:26.565Z,14.38
2023-05-07T01:35:26.571Z,14.35
2023-05-07T01:36:26.533Z,14.35
2023-05-07T01:37:26.534Z,14.31
2023-05-07T01:38:26.529Z,14.30
2023-05-07T01:39:26.522Z,14.31
2023-05-07T01:40:26.503Z,14.29
2023-05-07T01:41:26.487Z,14.26
2023-05-07T01:42:26.470Z,14.27
2023-05-07T01:43:26.526Z,14.27
2023-05-07T01:44:26.455Z,14.26
2023-05-07T01:45:26.448Z,14.24
2023-05-07T01:46:26.449Z,14.20
2023-05-07T01:47:26.463Z,14.20
2023-05-07T01:48:26.435Z,14.20
2023-05-07T01:49:26.400Z,14.19
2023-05-07T01:50:26.383Z,14.17
2023-05-07T01:51:26.372Z,14.16
2023-05-07T01:52:26.371Z,14.13
2023-05-07T01:53:26.361Z,14.13
2023-05-07T01:54:26.344Z,14.13
2023-05-07T01:55:26.333Z,14.12
2023-05-07T01:56:26.317Z,14.12
2023-05-07T01:57:26.316Z,14.11
2023-05-07T01:58:26.303Z,14.11
2023-05-07T01:59:26.283Z,14.11
2023-05-07T02:00:26.268Z,14.11
2023-05-07T02:01:26.264Z,14.09
2023-05-07T02:02:26.313Z,14.09
2023-05-07T02:03:26.428Z,14.09
2023-05-07T02:04:26.219Z,14.08
2023-05-07T02:05:26.212Z,14.06
2023-05-07T02:06:26.198Z,14.08
2023-05-07T02:07:26.207Z,14.06
2023-05-07T02:08:26.185Z,14.06
2023-05-07T02:09:26.168Z,14.06
2023-05-07T02:10:26.153Z,14.05
2023-05-07T02:11:26.174Z,14.04
2023-05-07T02:12:26.144Z,14.01
2023-05-07T02:13:26.128Z,13.99
2023-05-07T02:14:26.110Z,13.99
2023-05-07T02:15:26.108Z,13.98
2023-05-07T02:16:26.948Z,13.96
2023-05-07T02:17:26.115Z,13.96
2023-05-07T02:18:26.070Z,13.96
2023-05-07T02:19:26.061Z,13.96
2023-05-07T02:20:26.044Z,13.96
2023-05-07T02:21:26.049Z,13.96
2023-05-07T02:22:26.051Z,13.93
2023-05-07T02:23:26.021Z,13.93
2023-05-07T02:24:26.007Z,13.93
2023-05-07T02:25:26.019Z,13.88
2023-05-07T02:26:25.989Z,13.90
2023-05-07T02:27:25.972Z,13.88
2023-05-07T02:28:25.959Z,13.90
2023-05-07T02:29:26.444Z,13.88
2023-05-07T02:30:26.016Z,13.88
2023-05-07T02:31:25.954Z,13.88
2023-05-07T02:32:25.960Z,13.90
2023-05-07T02:33:25.910Z,13.88
2023-05-07T02:34:25.895Z,13.90
2023-05-07T02:35:25.894Z,13.91
2023-05-07T02:36:25.881Z,13.91
2023-05-07T02:37:25.862Z,13.91
2023-05-07T02:38:25.846Z,13.90
2023-05-07T02:39:25.840Z,13.88
2023-05-07T02:40:25.847Z,13.88
2023-05-07T02:41:25.817Z,13.88
2023-05-07T02:42:25.796Z,13.86
2023-05-07T02:43:25.793Z,13.87
2023-05-07T02:44:25.784Z,13.88
2023-05-07T02:45:25.783Z,13.86
2023-05-07T02:46:25.845Z,13.86
2023-05-07T02:47:25.758Z,13.84
2023-05-07T02:48:25.733Z,13.83
2023-05-07T02:49:25.738Z,13.84
2023-05-07T02:50:25.720Z,13.84
2023-05-07T02:51:26.224Z,13.83
2023-05-07T02:52:25.690Z,13.83
2023-05-07T02:53:25.680Z,13.81
2023-05-07T02:54:25.672Z,13.81
2023-05-07T02:55:25.661Z,13.81
2023-05-07T02:56:25.647Z,13.79
2023-05-07T02:57:25.637Z,13.79
2023-05-07T02:58:25.621Z,13.75
2023-05-07T02:59:25.625Z,13.73
2023-05-07T03:00:25.597Z,13.75
2023-05-07T03:01:25.625Z,13.75
2023-05-07T03:02:25.583Z,13.75
2023-05-07T03:03:25.575Z,13.73
2023-05-07T03:04:25.604Z,13.73
2023-05-07T03:05:25.545Z,13.72
2023-05-07T03:06:25.537Z,13.73
2023-05-07T03:07:25.518Z,13.71
2023-05-07T03:08:25.527Z,13.72
2023-05-07T03:09:25.510Z,13.69
2023-05-07T03:10:25.492Z,13.68
2023-05-07T03:11:25.474Z,13.68
2023-05-07T03:12:25.470Z,13.69
2023-05-07T03:13:25.554Z,13.68
2023-05-07T03:14:25.440Z,13.68
2023-05-07T03:15:25.431Z,13.66
2023-05-07T03:16:25.530Z,13.65
2023-05-07T03:17:25.514Z,13.65
2023-05-07T03:18:25.434Z,13.65
2023-05-07T03:19:25.387Z,13.65
2023-05-07T03:20:25.414Z,13.62
2023-05-07T03:21:25.375Z,13.62
2023-05-07T03:22:25.389Z,13.63
2023-05-07T03:23:25.388Z,13.63
2023-05-07T03:24:25.333Z,13.63
2023-05-07T03:25:25.317Z,13.62
2023-05-07T03:26:25.307Z,13.61
2023-05-07T03:27:25.296Z,13.59
2023-05-07T03:28:25.290Z,13.59
2023-05-07T03:29:25.270Z,13.61
2023-05-07T03:30:25.273Z,13.59
2023-05-07T03:31:25.283Z,13.59
2023-05-07T03:32:25.256Z,13.59
2023-05-07T03:33:25.230Z,13.59
2023-05-07T03:34:25.215Z,13.61
2023-05-07T03:35:25.237Z,13.57
2023-05-07T03:36:25.205Z,13.59
2023-05-07T03:37:25.184Z,13.59
2023-05-07T03:38:25.168Z,13.57
2023-05-07T03:39:25.161Z,13.61
2023-05-07T03:40:25.145Z,13.59
2023-05-07T03:41:25.149Z,13.59
2023-05-07T03:42:25.121Z,13.63
2023-05-07T03:43:25.115Z,13.62
2023-05-07T03:44:25.100Z,13.62
2023-05-07T03:45:25.104Z,13.61
2023-05-07T03:46:25.138Z,13.59
2023-05-07T03:47:25.078Z,13.59
2023-05-07T03:48:25.053Z,13.57
2023-05-07T03:49:25.056Z,13.54
2023-05-07T03:50:25.041Z,13.54
2023-05-07T03:51:25.029Z,13.54
2023-05-07T03:52:25.014Z,13.53
2023-05-07T03:53:25.006Z,13.54
2023-05-07T03:54:24.998Z,13.55
2023-05-07T03:55:24.991Z,13.55
2023-05-07T03:56:24.970Z,13.54
2023-05-07T03:57:24.964Z,13.54
2023-05-07T03:58:24.950Z,13.54
2023-05-07T03:59:24.947Z,13.54
2023-05-07T04:00:24.950Z,13.53
2023-05-07T04:01:24.919Z,13.53
2023-05-07T04:02:25.075Z,13.51
2023-05-07T04:03:24.978Z,13.51
2023-05-07T04:04:24.920Z,13.51
2023-05-07T04:05:24.927Z,13.48
2023-05-07T04:06:24.853Z,13.47
2023-05-07T04:07:24.890Z,13.47
2023-05-07T04:08:24.831Z,13.46
2023-05-07T04:09:24.838Z,13.46
2023-05-07T04:10:24.855Z,13.46
2023-05-07T04:11:24.809Z,13.44
2023-05-07T04:12:24.819Z,13.46
2023-05-07T04:13:24.857Z,13.44
2023-05-07T04:14:24.788Z,13.41
2023-05-07T04:15:24.764Z,13.41
2023-05-07T04:16:24.776Z,13.39
2023-05-07T04:17:24.821Z,13.39
2023-05-07T04:18:24.741Z,13.39
2023-05-07T04:19:24.722Z,13.38
2023-05-07T04:20:24.703Z,13.36
2023-05-07T04:21:24.701Z,13.35
2023-05-07T04:22:24.682Z,13.36
2023-05-07T04:23:24.699Z,13.36
2023-05-07T04:24:24.661Z,13.32
2023-05-07T04:25:24.656Z,13.35
2023-05-07T04:26:24.642Z,13.32
2023-05-07T04:27:24.640Z,13.29
2023-05-07T04:28:24.631Z,13.29
2023-05-07T04:29:24.613Z,13.29
2023-05-07T04:30:24.599Z,13.31
2023-05-07T04:31:24.598Z,13.28
2023-05-07T04:32:24.581Z,13.29
2023-05-07T04:33:24.566Z,13.28
2023-05-07T04:34:24.552Z,13.27
2023-05-07T04:35:24.549Z,13.28
2023-05-07T04:36:24.534Z,13.27
2023-05-07T04:37:24.529Z,13.28
2023-05-07T04:38:24.515Z,13.28
2023-05-07T04:39:24.513Z,13.29
2023-05-07T04:40:24.485Z,13.29
2023-05-07T04:41:24.519Z,13.29
2023-05-07T04:42:24.472Z,13.32
2023-05-07T04:43:24.455Z,13.38
2023-05-07T04:44:24.440Z,13.36
2023-05-07T04:45:24.434Z,13.38
2023-05-07T04:46:24.493Z,13.39
2023-05-07T04:47:24.474Z,13.41
2023-05-07T04:48:24.414Z,13.46
2023-05-07T04:49:24.412Z,13.44
2023-05-07T04:50:24.397Z,13.43
2023-05-07T04:51:24.382Z,13.46
2023-05-07T04:52:26.004Z,13.46
2023-05-07T04:53:24.346Z,13.48
2023-05-07T04:54:24.330Z,13.47
2023-05-07T04:55:24.333Z,13.48
2023-05-07T04:56:24.318Z,13.50
2023-05-07T04:57:24.302Z,13.47
2023-05-07T04:58:24.324Z,13.44
2023-05-07T04:59:24.282Z,13.43
2023-05-07T05:00:24.270Z,13.43
2023-05-07T05:01:24.365Z,13.43
2023-05-07T05:02:24.261Z,13.44
2023-05-07T05:03:24.303Z,13.43
2023-05-07T05:04:24.243Z,13.43
2023-05-07T05:05:24.262Z,13.41
2023-05-07T05:06:24.198Z,13.44
2023-05-07T05:07:24.217Z,13.46
2023-05-07T05:08:24.184Z,13.44
2023-05-07T05:09:24.169Z,13.44
2023-05-07T05:10:24.726Z,13.47
2023-05-07T05:11:24.154Z,13.48
2023-05-07T05:12:24.160Z,13.48
2023-05-07T05:13:24.156Z,13.47
2023-05-07T05:14:24.123Z,13.47
2023-05-07T05:15:24.136Z,13.50
2023-05-07T05:16:24.117Z,13.54
2023-05-07T05:17:24.104Z,13.54
2023-05-07T05:18:24.069Z,13.61
2023-05-07T05:19:24.111Z,13.61
2023-05-07T05:20:24.059Z,13.61
2023-05-07T05:21:24.045Z,13.61
2023-05-07T05:22:24.028Z,13.63
2023-05-07T05:23:24.036Z,13.66
2023-05-07T05:24:24.015Z,13.69
2023-05-07T05:25:23.996Z,13.75
2023-05-07T05:26:23.981Z,13.81
2023-05-07T05:27:23.972Z,13.84
2023-05-07T05:28:23.960Z,13.86
2023-05-07T05:29:23.967Z,13.88
2023-05-07T05:30:23.937Z,13.90
2023-05-07T05:31:23.977Z,13.96
2023-05-07T05:32:23.935Z,14.01
2023-05-07T05:33:23.923Z,14.05
2023-05-07T05:34:23.927Z,14.05
2023-05-07T05:35:23.883Z,14.05
2023-05-07T05:36:23.874Z,13.99
2023-05-07T05:37:23.863Z,13.98
2023-05-07T05:38:23.864Z,13.93
2023-05-07T05:39:23.841Z,13.91
2023-05-07T05:40:23.832Z,13.91
2023-05-07T05:41:23.831Z,13.91
2023-05-07T05:42:23.802Z,13.91
2023-05-07T05:43:23.807Z,13.91
2023-05-07T05:44:23.778Z,13.91
2023-05-07T05:45:23.777Z,13.93
2023-05-07T05:46:23.812Z,13.96
2023-05-07T05:47:23.749Z,13.99
2023-05-07T05:48:23.741Z,14.04
2023-05-07T05:49:23.730Z,14.12
2023-05-07T05:50:23.714Z,14.19
2023-05-07T05:51:23.708Z,14.29
2023-05-07T05:52:23.700Z,14.36
2023-05-07T05:53:23.694Z,14.46
2023-05-07T05:54:23.669Z,14.53
2023-05-07T05:55:23.677Z,14.60
2023-05-07T05:56:23.650Z,14.54
2023-05-07T05:57:23.651Z,14.52
2023-05-07T05:58:23.623Z,14.52
2023-05-07T05:59:23.653Z,14.44
2023-05-07T06:00:23.668Z,14.45
2023-05-07T06:01:23.611Z,14.46
2023-05-07T06:02:23.686Z,14.41
2023-05-07T06:03:23.616Z,14.36
2023-05-07T06:04:23.562Z,14.35
2023-05-07T06:05:23.583Z,14.26
2023-05-07T06:06:23.546Z,14.24
2023-05-07T06:07:23.534Z,14.23
2023-05-07T06:08:23.511Z,14.20
2023-05-07T06:09:23.503Z,14.20
2023-05-07T06:10:23.493Z,14.20
2023-05-07T06:11:23.495Z,14.27
2023-05-07T06:12:23.469Z,14.29
2023-05-07T06:13:23.596Z,14.29
2023-05-07T06:14:23.440Z,14.31
2023-05-07T06:15:23.455Z,14.38
2023-05-07T06:16:23.484Z,14.38
2023-05-07T06:17:23.427Z,14.39
2023-05-07T06:18:23.399Z,14.38
2023-05-07T06:19:23.393Z,14.41
2023-05-07T06:20:23.389Z,14.46
2023-05-07T06:21:23.402Z,14.46
2023-05-07T06:22:23.363Z,14.46
2023-05-07T06:23:23.348Z,14.53
2023-05-07T06:24:23.336Z,14.61
2023-05-07T06:25:23.339Z,14.64
2023-05-07T06:26:23.325Z,14.69
2023-05-07T06:27:23.301Z,14.64
2023-05-07T06:28:23.288Z,14.49
2023-05-07T06:29:23.284Z,14.54
2023-05-07T06:30:23.279Z,14.53
2023-05-07T06:31:23.358Z,14.56
2023-05-07T06:32:23.286Z,14.57
2023-05-07T06:33:23.254Z,14.59
2023-05-07T06:34:23.235Z,14.57
2023-05-07T06:35:23.226Z,14.63
2023-05-07T06:36:23.264Z,14.67
2023-05-07T06:37:23.189Z,14.64
2023-05-07T06:38:23.218Z,14.64
2023-05-07T06:39:23.172Z,14.63
2023-05-07T06:40:23.170Z,14.63
2023-05-07T06:41:23.151Z,14.59
2023-05-07T06:42:23.142Z,14.61
2023-05-07T06:43:23.128Z,14.67
2023-05-07T06:44:23.135Z,14.79
2023-05-07T06:45:23.115Z,14.80
2023-05-07T06:46:23.141Z,14.80
2023-05-07T06:47:23.097Z,14.82
2023-05-07T06:48:23.079Z,14.85
2023-05-07T06:49:23.095Z,14.90
2023-05-07T06:50:23.064Z,14.91
2023-05-07T06:51:23.038Z,14.78
2023-05-07T06:52:23.032Z,14.78
2023-05-07T06:53:23.021Z,14.79
2023-05-07T06:54:24.448Z,14.80
2023-05-07T06:55:23.004Z,14.78
2023-05-07T06:56:22.991Z,14.86
2023-05-07T06:57:22.981Z,14.94
2023-05-07T06:58:23.002Z,14.91
2023-05-07T06:59:22.963Z,14.91
2023-05-07T07:00:22.941Z,14.97
2023-05-07T07:01:22.972Z,14.93
2023-05-07T07:02:22.989Z,14.94
2023-05-07T07:03:22.920Z,14.90
2023-05-07T07:04:22.966Z,14.95
2023-05-07T07:05:22.898Z,15.01
2023-05-07T07:06:22.890Z,15.07
2023-05-07T07:07:22.868Z,15.16
2023-05-07T07:08:22.865Z,15.22
2023-05-07T07:09:23.997Z,15.22
2023-05-07T07:10:22.834Z,15.22
2023-05-07T07:11:22.816Z,15.20
2023-05-07T07:12:22.814Z,15.28
2023-05-07T07:13:22.858Z,15.25
2023-05-07T07:14:22.791Z,15.27
2023-05-07T07:15:22.774Z,15.18
2023-05-07T07:16:22.925Z,15.19
2023-05-07T07:17:22.827Z,15.16
2023-05-07T07:18:22.747Z,15.23
2023-05-07T07:19:22.742Z,15.28
2023-05-07T07:20:22.727Z,15.23
2023-05-07T07:21:22.708Z,15.18
2023-05-07T07:22:22.697Z,15.20
2023-05-07T07:23:22.688Z,15.18
2023-05-07T07:24:22.765Z,15.23
2023-05-07T07:25:22.666Z,15.35
2023-05-07T07:26:22.659Z,15.43
2023-05-07T07:27:22.657Z,15.52
2023-05-07T07:28:22.635Z,15.55
2023-05-07T07:29:22.619Z,15.55
2023-05-07T07:30:22.646Z,15.58
2023-05-07T07:31:22.725Z,15.58
2023-05-07T07:32:22.589Z,15.53
2023-05-07T07:33:22.575Z,15.64
2023-05-07T07:34:22.569Z,15.59
2023-05-07T07:35:22.547Z,15.59
2023-05-07T07:36:23.827Z,15.68
2023-05-07T07:37:22.539Z,15.71
2023-05-07T07:38:22.514Z,15.68
2023-05-07T07:39:22.514Z,15.62
2023-05-07T07:40:22.494Z,15.55
2023-05-07T07:41:22.503Z,15.59
2023-05-07T07:42:22.471Z,15.70
2023-05-07T07:43:22.463Z,15.71
2023-05-07T07:44:22.447Z,15.81
2023-05-07T07:45:22.453Z,15.89
2023-05-07T07:46:22.490Z,15.93
2023-05-07T07:47:22.479Z,15.96
2023-05-07T07:48:22.398Z,16.10
2023-05-07T07:49:22.409Z,16.16
2023-05-07T07:50:36.128Z,16.22
2023-05-07T07:51:22.378Z,16.27
2023-05-07T07:52:22.356Z,16.30
2023-05-07T07:53:22.364Z,16.30
2023-05-07T07:54:22.366Z,16.32
2023-05-07T07:55:22.339Z,16.30
2023-05-07T07:56:22.314Z,16.40
2023-05-07T07:57:22.307Z,16.41
2023-05-07T07:58:22.344Z,16.57
2023-05-07T07:59:22.298Z,16.77
2023-05-07T08:00:22.358Z,16.95
2023-05-07T08:01:22.260Z,16.96
2023-05-07T08:02:22.271Z,17.12
2023-05-07T08:03:22.283Z,17.22
2023-05-07T08:04:22.350Z,17.39
2023-05-07T08:05:22.225Z,17.35
2023-05-07T08:06:22.258Z,17.32
2023-05-07T08:07:22.196Z,17.53
2023-05-07T08:08:22.192Z,17.65
2023-05-07T08:09:22.223Z,17.89
2023-05-07T08:10:22.286Z,18.19
2023-05-07T08:11:22.154Z,18.32
2023-05-07T08:12:22.136Z,18.07
2023-05-07T08:13:22.277Z,17.55
2023-05-07T08:14:22.121Z,17.54
2023-05-07T08:15:22.123Z,17.57
2023-05-07T08:16:22.977Z,17.45
2023-05-07T08:17:22.140Z,17.22
2023-05-07T08:18:22.084Z,16.95
2023-05-07T08:19:22.077Z,16.82
2023-05-07T08:20:22.074Z,16.60
2023-05-07T08:21:22.043Z,16.66
2023-05-07T08:22:22.029Z,16.72
2023-05-07T08:23:22.034Z,16.75
2023-05-07T08:24:22.017Z,16.92
2023-05-07T08:25:22.017Z,17.05
2023-05-07T08:26:21.983Z,17.10
2023-05-07T08:27:21.983Z,17.10
2023-05-07T08:28:21.981Z,16.90
2023-05-07T08:29:21.965Z,16.84
2023-05-07T08:30:21.941Z,16.80
2023-05-07T08:31:21.994Z,16.78
2023-05-07T08:32:21.949Z,16.88
2023-05-07T08:33:21.926Z,17.02
2023-05-07T08:34:21.923Z,17.09
2023-05-07T08:35:21.894Z,17.17
2023-05-07T08:36:21.912Z,17.17
2023-05-07T08:37:21.887Z,17.14
2023-05-07T08:38:21.867Z,16.85
2023-05-07T08:39:21.851Z,16.72
2023-05-07T08:40:21.878Z,16.66
2023-05-07T08:41:21.912Z,16.55
2023-05-07T08:42:21.819Z,16.52
2023-05-07T08:43:21.823Z,16.54
2023-05-07T08:44:21.785Z,16.60
2023-05-07T08:45:21.782Z,16.66
2023-05-07T08:46:21.812Z,16.60
2023-05-07T08:47:22.328Z,16.63
2023-05-07T08:48:21.739Z,16.65
2023-05-07T08:49:21.734Z,16.63
2023-05-07T08:50:21.718Z,16.59
2023-05-07T08:51:21.718Z,16.72
2023-05-07T08:52:21.708Z,16.80
2023-05-07T08:53:21.770Z,16.78
2023-05-07T08:54:21.682Z,16.75
2023-05-07T08:55:22.050Z,16.75
2023-05-07T08:56:22.669Z,16.84
2023-05-07T08:57:21.662Z,16.87
2023-05-07T08:58:21.624Z,16.91
2023-05-07T08:59:21.627Z,16.95
2023-05-07T09:00:21.659Z,16.92
2023-05-07T09:01:21.649Z,16.80
2023-05-07T09:02:21.655Z,16.81
2023-05-07T09:03:21.683Z,16.80
2023-05-07T09:04:21.556Z,16.90
2023-05-07T09:05:21.590Z,16.99
2023-05-07T09:06:21.544Z,17.14
2023-05-07T09:07:21.537Z,17.17
2023-05-07T09:08:21.514Z,17.02
2023-05-07T09:09:21.539Z,16.95
2023-05-07T09:10:21.507Z,17.05
2023-05-07T09:11:21.490Z,17.18
2023-05-07T09:12:21.477Z,17.05
2023-05-07T09:13:21.521Z,17.10
2023-05-07T09:14:21.474Z,17.21
2023-05-07T09:15:21.464Z,17.36
2023-05-07T09:16:21.451Z,17.32
2023-05-07T09:17:21.456Z,17.24
2023-05-07T09:18:21.414Z,17.25
2023-05-07T09:19:21.413Z,17.21
2023-05-07T09:20:21.395Z,17.33
2023-05-07T09:21:21.378Z,17.27
2023-05-07T09:22:21.365Z,17.18
2023-05-07T09:23:21.369Z,17.22
2023-05-07T09:24:21.350Z,17.32
2023-05-07T09:25:21.340Z,17.39
2023-05-07T09:26:21.318Z,17.40
2023-05-07T09:27:21.318Z,17.57
2023-05-07T09:28:21.355Z,17.60
2023-05-07T09:29:21.297Z,17.63
2023-05-07T09:30:21.271Z,17.68
2023-05-07T09:31:21.767Z,17.73
2023-05-07T09:32:21.312Z,17.74
2023-05-07T09:33:21.251Z,17.77
2023-05-07T09:34:21.235Z,17.89
2023-05-07T09:35:21.221Z,17.91
2023-05-07T09:36:21.213Z,17.96
2023-05-07T09:37:21.209Z,17.91
2023-05-07T09:38:21.210Z,18.01
2023-05-07T09:39:21.175Z,17.98
2023-05-07T09:40:21.195Z,17.91
2023-05-07T09:41:21.160Z,17.95
2023-05-07T09:42:21.167Z,17.83
2023-05-07T09:43:21.132Z,17.79
2023-05-07T09:44:21.124Z,17.80
2023-05-07T09:45:21.111Z,17.70
2023-05-07T09:46:21.152Z,17.65
2023-05-07T09:47:21.139Z,17.70
2023-05-07T09:48:21.098Z,17.63
2023-05-07T09:49:21.092Z,17.46
2023-05-07T09:50:21.058Z,17.47
2023-05-07T09:51:21.058Z,17.60
2023-05-07T09:52:21.047Z,17.74
2023-05-07T09:53:21.018Z,17.94
2023-05-07T09:54:21.017Z,17.87
2023-05-07T09:55:20.999Z,18.02
2023-05-07T09:56:21.002Z,18.05
2023-05-07T09:57:21.003Z,18.09
2023-05-07T09:58:20.966Z,18.21
2023-05-07T09:59:20.950Z,18.31
2023-05-07T10:00:20.945Z,18.29
2023-05-07T10:01:20.942Z,18.05
2023-05-07T10:02:20.963Z,17.94
2023-05-07T10:03:21.006Z,17.86
2023-05-07T10:04:20.909Z,17.96
2023-05-07T10:05:20.898Z,18.16
2023-05-07T10:06:20.892Z,18.41
2023-05-07T10:07:20.859Z,18.57
2023-05-07T10:08:20.856Z,18.72
2023-05-07T10:09:20.836Z,18.76
2023-05-07T10:10:20.844Z,18.84
2023-05-07T10:11:20.815Z,18.89
2023-05-07T10:12:20.809Z,18.90
2023-05-07T10:13:20.932Z,18.97
2023-05-07T10:14:20.788Z,18.97
2023-05-07T10:15:20.784Z,18.99
2023-05-07T10:16:20.765Z,19.02
2023-05-07T10:17:20.813Z,19.10
2023-05-07T10:18:20.945Z,19.21
2023-05-07T10:19:20.737Z,19.25
2023-05-07T10:20:20.737Z,19.21
2023-05-07T10:21:20.705Z,19.23
2023-05-07T10:22:20.696Z,19.24
2023-05-07T10:23:20.680Z,19.13
2023-05-07T10:24:20.686Z,19.23
2023-05-07T10:25:20.672Z,19.32
2023-05-07T10:26:20.655Z,19.30
2023-05-07T10:27:20.644Z,19.09
2023-05-07T10:28:20.634Z,18.99
2023-05-07T10:29:20.628Z,18.99
2023-05-07T10:30:20.612Z,18.94
2023-05-07T10:31:20.616Z,18.89
2023-05-07T10:32:20.608Z,18.84
2023-05-07T10:33:20.585Z,18.78
2023-05-07T10:34:20.580Z,18.74
2023-05-07T10:35:20.551Z,18.78
2023-05-07T10:36:20.567Z,18.93
2023-05-07T10:37:20.541Z,18.71
2023-05-07T10:38:20.544Z,18.57
2023-05-07T10:39:20.529Z,18.68
2023-05-07T10:40:20.508Z,18.82
2023-05-07T10:41:20.492Z,18.78
2023-05-07T10:42:20.484Z,18.78
2023-05-07T10:43:20.477Z,18.66
2023-05-07T10:44:20.461Z,18.54
2023-05-07T10:45:20.449Z,18.51
2023-05-07T10:46:20.547Z,18.47
2023-05-07T10:47:20.467Z,18.42
2023-05-07T10:49:21.396Z,18.71
2023-05-07T10:50:20.419Z,18.78
2023-05-07T10:51:20.394Z,18.84
2023-05-07T10:52:20.384Z,18.94
2023-05-07T10:53:20.358Z,19.05
2023-05-07T10:54:20.356Z,19.10
2023-05-07T10:55:20.341Z,19.17
2023-05-07T10:56:20.331Z,19.34
2023-05-07T10:57:20.331Z,19.47
2023-05-07T10:58:31.411Z,19.50
2023-05-07T10:59:20.290Z,19.53
2023-05-07T11:00:31.476Z,19.64
2023-05-07T11:01:20.305Z,19.62
2023-05-07T11:02:20.304Z,19.58
2023-05-07T11:03:20.252Z,19.64
2023-05-07T11:04:20.247Z,19.75
2023-05-07T11:05:20.340Z,19.57
2023-05-07T11:06:20.226Z,19.53
2023-05-07T11:07:20.216Z,19.40
2023-05-07T11:08:20.199Z,19.46
2023-05-07T11:09:20.184Z,19.55
2023-05-07T11:10:20.168Z,19.50
2023-05-07T11:11:20.165Z,19.53
2023-05-07T11:12:20.153Z,19.45
2023-05-07T11:13:20.221Z,19.39
2023-05-07T11:14:20.132Z,19.38
2023-05-07T11:15:20.203Z,19.38
2023-05-07T11:16:20.187Z,19.52
2023-05-07T11:17:20.104Z,19.64
2023-05-07T11:18:20.090Z,19.68
2023-05-07T11:19:20.073Z,19.79
2023-05-07T11:20:20.074Z,19.90
2023-05-07T11:21:20.046Z,19.94
2023-05-07T11:22:20.041Z,19.85
2023-05-07T11:23:20.035Z,19.71
2023-05-07T11:24:20.026Z,19.70
2023-05-07T11:25:20.011Z,19.67
2023-05-07T11:26:20.070Z,19.68
2023-05-07T11:27:19.986Z,19.68
2023-05-07T11:28:19.983Z,19.70
2023-05-07T11:29:22.295Z,19.80
2023-05-07T11:30:19.968Z,19.83
2023-05-07T11:31:19.975Z,19.68
2023-05-07T11:32:19.924Z,19.58
2023-05-07T11:33:19.930Z,19.45
2023-05-07T11:34:19.923Z,19.42
2023-05-07T11:35:19.908Z,19.49
2023-05-07T11:36:19.875Z,19.55
2023-05-07T11:37:19.880Z,19.57
2023-05-07T11:38:19.862Z,19.57
2023-05-07T11:39:19.869Z,19.64
2023-05-07T11:40:19.837Z,19.58
2023-05-07T11:41:19.831Z,19.67
2023-05-07T11:42:19.816Z,19.71
2023-05-07T11:43:19.807Z,19.65
2023-05-07T11:44:19.805Z,19.58
2023-05-07T11:45:19.796Z,19.55
2023-05-07T11:46:19.806Z,19.60
2023-05-07T11:47:19.912Z,19.62
2023-05-07T11:48:19.759Z,19.67
2023-05-07T11:49:19.752Z,19.61
2023-05-07T11:50:19.729Z,19.52
2023-05-07T11:51:19.726Z,19.61
2023-05-07T11:52:19.707Z,19.71
2023-05-07T11:53:19.717Z,19.85
2023-05-07T11:54:19.694Z,20.00
2023-05-07T11:55:19.678Z,20.05
2023-05-07T11:56:19.674Z,20.08
2023-05-07T11:57:19.656Z,20.10
2023-05-07T11:58:19.650Z,20.16
2023-05-07T11:59:19.638Z,20.27
2023-05-07T12:00:19.620Z,20.42
2023-05-07T12:01:19.684Z,20.54
2023-05-07T12:02:19.632Z,20.63
2023-05-07T12:03:19.696Z,20.64
2023-05-07T12:04:19.678Z,20.57
2023-05-07T12:05:19.575Z,20.41
2023-05-07T12:06:19.556Z,20.35
2023-05-07T12:07:19.567Z,20.25
2023-05-07T12:08:19.540Z,20.33
2023-05-07T12:09:19.524Z,20.37
2023-05-07T12:10:19.515Z,20.35
2023-05-07T12:11:19.516Z,20.26
2023-05-07T12:12:19.505Z,20.25
2023-05-07T12:13:19.531Z,20.26
2023-05-07T12:14:19.476Z,20.16
2023-05-07T12:15:19.469Z,20.16
2023-05-07T12:16:19.471Z,20.25
2023-05-07T12:17:19.493Z,20.15
2023-05-07T12:18:19.421Z,19.98
2023-05-07T12:19:19.417Z,20.04
2023-05-07T12:20:19.411Z,20.15
2023-05-07T12:21:19.401Z,20.25
2023-05-07T12:22:19.394Z,20.31
2023-05-07T12:23:19.367Z,20.37
2023-05-07T12:24:22.040Z,20.48
2023-05-07T12:25:19.376Z,20.53
2023-05-07T12:26:19.341Z,20.41
2023-05-07T12:27:19.335Z,20.40
2023-05-07T12:28:19.309Z,20.38
2023-05-07T12:29:19.319Z,20.46
2023-05-07T12:30:19.311Z,20.51
2023-05-07T12:31:19.336Z,20.51
2023-05-07T12:32:19.271Z,20.48
2023-05-07T12:33:19.261Z,20.46
2023-05-07T12:34:19.263Z,20.53
2023-05-07T12:35:19.251Z,20.51
2023-05-07T12:36:19.258Z,20.58
2023-05-07T12:37:19.219Z,20.53
2023-05-07T12:38:19.222Z,20.56
2023-05-07T12:39:19.190Z,20.68
2023-05-07T12:40:19.202Z,20.72
2023-05-07T12:41:19.184Z,20.78
2023-05-07T12:42:19.169Z,20.91
2023-05-07T12:43:19.159Z,20.97
2023-05-07T12:44:19.145Z,20.90
2023-05-07T12:45:19.145Z,20.83
2023-05-07T12:46:19.166Z,20.78
2023-05-07T12:47:19.105Z,20.81
2023-05-07T12:48:19.101Z,20.82
2023-05-07T12:49:19.096Z,20.90
2023-05-07T12:50:19.093Z,20.97
2023-05-07T12:51:19.067Z,21.01
2023-05-07T12:52:19.054Z,20.96
2023-05-07T12:53:19.042Z,20.73